createdAt,value
2017-07-15T00:01:13.458Z,72.60
2017-07-15T00:03:40.243Z,75.20
2017-07-15T00:06:06.298Z,74.20
2017-07-15T00:08:32.416Z,73.50
2017-07-15T00:10:58.454Z,73.40
2017-07-15T00:13:24.602Z,74.30
2017-07-15T00:15:50.696Z,74.20
2017-07-15T00:18:16.793Z,74.50
2017-07-15T00:20:42.825Z,74.30
2017-07-15T00:23:09.643Z,74.30
2017-07-15T00:25:35.704Z,74.10
2017-07-15T00:28:01.770Z,74.90
2017-07-15T00:30:27.847Z,76.20
2017-07-15T00:32:53.915Z,76.20
2017-07-15T00:35:19.985Z,76.20
2017-07-15T00:37:46.032Z,76.70
2017-07-15T00:40:12.113Z,76.50
2017-07-15T00:42:39.080Z,76.00
2017-07-15T00:45:05.133Z,74.80
2017-07-15T00:47:31.183Z,74.30
2017-07-15T00:49:57.989Z,74.20
2017-07-15T00:52:24.055Z,74.10
2017-07-15T00:54:50.838Z,74.00
2017-07-15T00:57:16.879Z,73.70
2017-07-15T00:59:42.922Z,72.90
2017-07-15T01:02:09.016Z,73.00
2017-07-15T01:04:35.101Z,73.10
2017-07-15T01:07:01.177Z,73.60
2017-07-15T01:09:27.282Z,73.60
2017-07-15T01:11:53.423Z,73.00
2017-07-15T01:14:20.212Z,74.00
2017-07-15T01:16:46.282Z,73.10
2017-07-15T01:19:12.420Z,73.00
2017-07-15T01:21:38.463Z,73.40
2017-07-15T01:24:04.525Z,73.30
2017-07-15T01:26:30.579Z,73.80
2017-07-15T01:28:56.710Z,73.30
2017-07-15T01:31:22.771Z,74.00
2017-07-15T01:33:49.607Z,75.70
2017-07-15T01:36:15.659Z,74.90
2017-07-15T01:38:42.445Z,74.20
2017-07-15T01:41:08.527Z,74.10
2017-07-15T01:43:35.350Z,74.40
2017-07-15T01:46:01.407Z,74.70
2017-07-15T01:48:28.252Z,75.00
2017-07-15T01:50:54.306Z,75.00
2017-07-15T01:53:20.380Z,74.90
2017-07-15T01:55:46.419Z,75.20
2017-07-15T01:58:12.480Z,76.10
2017-07-15T02:00:39.283Z,77.50
2017-07-15T02:03:05.324Z,76.70
2017-07-15T02:05:31.363Z,76.40
2017-07-15T02:07:57.478Z,76.60
2017-07-15T02:10:23.592Z,76.90
2017-07-15T02:12:49.673Z,76.40
2017-07-15T02:15:16.470Z,76.10
2017-07-15T02:17:42.512Z,75.90
2017-07-15T02:20:08.545Z,76.20
2017-07-15T02:22:34.605Z,76.70
2017-07-15T02:25:00.681Z,75.80
2017-07-15T02:27:26.709Z,75.00
2017-07-15T02:29:52.762Z,75.00
2017-07-15T02:32:18.861Z,75.20
2017-07-15T02:34:44.908Z,75.40
2017-07-15T02:37:10.988Z,75.00
2017-07-15T02:39:37.784Z,76.10
2017-07-15T02:42:03.892Z,75.70
2017-07-15T02:44:29.946Z,76.30
2017-07-15T02:46:55.996Z,75.90
2017-07-15T02:49:22.024Z,75.20
2017-07-15T02:51:48.108Z,74.70
2017-07-15T02:54:14.191Z,73.70
2017-07-15T02:56:40.240Z,73.60
2017-07-15T02:59:06.272Z,74.70
2017-07-15T03:01:32.325Z,76.00
2017-07-15T03:03:58.356Z,75.20
2017-07-15T03:06:25.164Z,73.60
2017-07-15T03:08:51.333Z,73.60
2017-07-15T03:11:18.101Z,74.20
2017-07-15T03:13:44.146Z,74.20
2017-07-15T03:16:10.168Z,74.40
2017-07-15T03:18:36.226Z,74.00
2017-07-15T03:21:02.380Z,72.50
2017-07-15T03:23:28.434Z,72.10
2017-07-15T03:25:55.232Z,71.90
2017-07-15T03:28:21.285Z,71.80
2017-07-15T03:30:47.331Z,71.80
2017-07-15T03:33:14.132Z,71.30
2017-07-15T03:35:40.197Z,71.30
2017-07-15T03:38:06.340Z,71.70
2017-07-15T03:40:33.150Z,71.90
2017-07-15T03:42:59.984Z,71.80
2017-07-15T03:45:26.032Z,71.80
2017-07-15T03:47:52.209Z,72.30
2017-07-15T03:50:18.256Z,72.40
2017-07-15T03:52:44.295Z,72.80
2017-07-15T03:55:14.040Z,72.80
2017-07-15T03:57:40.092Z,73.00
2017-07-15T04:00:06.196Z,72.90
2017-07-15T04:02:32.238Z,73.50
2017-07-15T04:04:58.327Z,74.70
2017-07-15T04:07:24.354Z,74.20
2017-07-15T04:09:50.460Z,75.40
2017-07-15T04:12:17.233Z,75.10
2017-07-15T04:14:43.280Z,75.00
2017-07-15T04:17:09.330Z,74.50
2017-07-15T04:19:35.373Z,75.20
2017-07-15T04:22:01.425Z,75.00
2017-07-15T04:24:28.213Z,72.80
2017-07-15T04:26:54.324Z,72.50
2017-07-15T04:29:20.355Z,72.50
2017-07-15T04:31:46.384Z,71.70
2017-07-15T04:34:12.428Z,72.30
2017-07-15T04:36:38.509Z,73.00
2017-07-15T04:39:05.313Z,71.20
2017-07-15T04:41:31.436Z,71.20
2017-07-15T04:43:57.456Z,70.70
2017-07-15T04:46:23.545Z,71.70
2017-07-15T04:48:50.331Z,71.00
2017-07-15T04:51:16.363Z,71.60
2017-07-15T04:53:42.407Z,71.80
2017-07-15T04:56:08.465Z,70.70
2017-07-15T04:58:34.520Z,69.90
2017-07-15T05:01:00.595Z,70.70
2017-07-15T05:03:26.656Z,70.30
2017-07-15T05:05:52.717Z,69.30
2017-07-15T05:08:18.816Z,70.00
2017-07-15T05:10:44.838Z,70.50
2017-07-15T05:13:10.907Z,71.50
2017-07-15T05:15:37.693Z,71.50
2017-07-15T05:18:03.751Z,71.60
2017-07-15T05:20:29.789Z,72.60
2017-07-15T05:22:55.832Z,72.20
2017-07-15T05:25:21.878Z,73.10
2017-07-15T05:27:47.910Z,72.40
2017-07-15T05:30:13.959Z,72.50
2017-07-15T05:32:40.014Z,72.60
2017-07-15T05:35:06.318Z,71.00
2017-07-15T05:37:32.344Z,69.60
2017-07-15T05:39:58.452Z,69.00
2017-07-15T05:42:25.233Z,70.30
2017-07-15T05:44:51.304Z,69.40
2017-07-15T05:47:17.353Z,69.10
2017-07-15T05:49:43.376Z,68.20
2017-07-15T05:52:09.413Z,67.40
2017-07-15T05:54:36.179Z,67.80
2017-07-15T05:57:02.225Z,67.70
2017-07-15T05:59:28.263Z,67.80
2017-07-15T06:01:54.373Z,66.70
2017-07-15T06:04:20.451Z,67.10
2017-07-15T06:06:46.523Z,67.10
2017-07-15T06:09:12.565Z,66.80
2017-07-15T06:11:39.405Z,66.20
2017-07-15T06:14:05.434Z,66.00
2017-07-15T06:16:31.480Z,67.30
2017-07-15T06:18:58.433Z,65.60
2017-07-15T06:21:24.457Z,65.30
2017-07-15T06:23:50.494Z,65.40
2017-07-15T06:26:16.526Z,63.90
2017-07-15T06:31:54.213Z,63.70
2017-07-15T06:34:20.239Z,63.50
2017-07-15T06:36:46.256Z,64.00
2017-07-15T06:39:13.057Z,65.90
2017-07-15T06:41:39.108Z,65.90
2017-07-15T06:44:05.146Z,66.50
2017-07-15T06:46:31.195Z,66.90
2017-07-15T06:48:57.282Z,67.40
2017-07-15T06:51:23.321Z,66.80
2017-07-15T06:53:49.393Z,66.80
2017-07-15T06:56:16.153Z,67.30
2017-07-15T06:58:42.242Z,67.30
2017-07-15T07:01:08.289Z,67.20
2017-07-15T07:03:34.313Z,66.50
2017-07-15T07:06:01.174Z,65.60
2017-07-15T07:08:28.077Z,64.40
2017-07-15T07:11:11.575Z,64.40
2017-07-15T07:13:37.602Z,64.20
2017-07-15T07:16:03.643Z,64.40
2017-07-15T07:18:29.682Z,64.80
2017-07-15T07:20:55.831Z,64.50
2017-07-15T07:23:21.867Z,63.30
2017-07-15T07:25:47.936Z,63.30
2017-07-15T07:28:13.982Z,62.20
2017-07-15T07:30:40.028Z,62.20
2017-07-15T07:33:06.073Z,63.40
2017-07-15T07:35:32.180Z,61.80
2017-07-15T07:37:58.225Z,59.90
2017-07-15T07:40:24.353Z,58.90
2017-07-15T07:42:56.541Z,59.60
2017-07-15T07:45:22.601Z,59.10
2017-07-15T07:47:49.389Z,58.70
2017-07-15T07:50:15.462Z,58.70
2017-07-15T07:52:46.104Z,58.40
2017-07-15T07:55:12.313Z,57.90
2017-07-15T07:57:38.356Z,57.70
2017-07-15T08:00:04.396Z,57.90
2017-07-15T08:02:30.721Z,57.50
2017-07-15T08:04:56.929Z,57.60
2017-07-15T08:07:22.968Z,57.80
2017-07-15T08:09:49.031Z,57.50
2017-07-15T08:12:15.828Z,57.80
2017-07-15T08:14:45.818Z,57.70
2017-07-15T08:17:12.587Z,58.30
2017-07-15T08:19:38.708Z,58.30
2017-07-15T08:22:05.030Z,57.40
2017-07-15T08:24:31.816Z,57.90
2017-07-15T08:26:57.875Z,57.90
2017-07-15T08:29:24.049Z,57.90
2017-07-15T08:31:50.077Z,57.50
2017-07-15T08:34:16.164Z,58.70
2017-07-15T08:36:42.247Z,58.40
2017-07-15T08:39:24.033Z,58.60
2017-07-15T08:41:53.714Z,58.90
2017-07-15T08:44:19.774Z,59.50
2017-07-15T08:46:45.869Z,58.60
2017-07-15T08:49:12.034Z,58.10
2017-07-15T08:51:38.110Z,57.80
2017-07-15T08:54:04.180Z,56.40
2017-07-15T08:56:31.027Z,55.80
2017-07-15T08:58:57.052Z,55.80
2017-07-15T09:01:23.181Z,55.10
2017-07-15T09:03:49.235Z,54.90
2017-07-15T09:06:15.284Z,55.60
2017-07-15T09:08:41.357Z,56.00
2017-07-15T09:11:07.428Z,55.80
2017-07-15T09:13:33.493Z,54.60
2017-07-15T09:15:59.570Z,53.80
2017-07-15T09:18:25.580Z,54.60
2017-07-15T09:20:51.608Z,54.20
2017-07-15T09:23:17.655Z,53.80
2017-07-15T09:25:43.712Z,54.20
2017-07-15T09:28:09.752Z,54.20
2017-07-15T09:30:35.827Z,53.70
2017-07-15T09:33:01.877Z,54.60
2017-07-15T09:35:27.977Z,54.40
2017-07-15T09:37:54.032Z,55.20
2017-07-15T09:40:20.092Z,54.70
2017-07-15T09:42:46.129Z,53.80
2017-07-15T09:45:12.156Z,53.90
2017-07-15T09:47:38.385Z,55.20
2017-07-15T09:50:04.409Z,54.40
2017-07-15T09:52:30.515Z,53.70
2017-07-15T09:54:57.329Z,52.30
2017-07-15T09:57:23.414Z,52.30
2017-07-15T09:59:49.533Z,52.00
2017-07-15T10:02:15.576Z,52.10
2017-07-15T10:04:41.628Z,52.20
2017-07-15T10:07:07.803Z,52.30
2017-07-15T10:09:33.876Z,52.10
2017-07-15T10:11:59.904Z,51.00
2017-07-15T10:14:25.938Z,51.50
2017-07-15T10:17:11.901Z,51.10
2017-07-15T10:19:38.285Z,51.80
2017-07-15T10:22:07.781Z,52.80
2017-07-15T10:24:37.065Z,52.50
2017-07-15T10:27:04.205Z,51.40
2017-07-15T10:29:39.692Z,52.50
2017-07-15T10:32:13.064Z,51.90
2017-07-15T10:34:39.121Z,51.70
2017-07-15T10:37:15.685Z,51.60
2017-07-15T10:39:58.968Z,51.40
2017-07-15T10:42:25.117Z,50.70
2017-07-15T10:44:59.645Z,50.20
2017-07-15T10:47:31.168Z,51.00
2017-07-15T10:50:01.496Z,52.10
2017-07-15T10:52:31.836Z,51.50
2017-07-15T10:55:01.772Z,51.10
2017-07-15T10:57:36.168Z,51.10
2017-07-15T11:00:10.488Z,51.30
2017-07-15T11:02:57.920Z,51.70
2017-07-15T11:05:31.405Z,51.70
2017-07-15T11:10:55.285Z,51.70
2017-07-15T11:13:30.516Z,51.20
2017-07-15T11:15:58.468Z,52.10
2017-07-15T11:18:39.156Z,52.10
2017-07-15T11:21:06.032Z,50.70
2017-07-15T11:23:32.139Z,50.70
2017-07-15T11:26:02.275Z,51.10
2017-07-15T11:28:33.407Z,51.60
2017-07-15T11:31:06.397Z,51.90
2017-07-15T11:33:32.454Z,51.80
2017-07-15T11:36:00.619Z,50.10
2017-07-15T11:38:34.852Z,49.60
2017-07-15T11:41:00.978Z,49.50
2017-07-15T11:43:28.130Z,49.90
2017-07-15T11:45:57.746Z,49.30
2017-07-15T11:48:23.796Z,49.20
2017-07-15T11:50:55.333Z,48.50
2017-07-15T11:53:33.707Z,48.90
2017-07-15T11:55:59.892Z,48.50
2017-07-15T11:58:29.452Z,48.70
2017-07-15T12:01:13.740Z,46.10
2017-07-15T12:03:45.049Z,46.00
2017-07-15T12:06:16.409Z,45.90
2017-07-15T12:08:58.845Z,46.10
2017-07-15T12:11:45.320Z,46.10
2017-07-15T12:14:19.828Z,46.70
2017-07-15T12:16:47.715Z,47.30
2017-07-15T12:19:13.852Z,47.10
2017-07-15T12:21:52.760Z,47.40
2017-07-15T12:24:19.532Z,47.60
2017-07-15T12:27:01.403Z,47.60
2017-07-15T12:29:33.143Z,47.80
2017-07-15T12:31:59.312Z,47.80
2017-07-15T12:34:25.333Z,47.80
2017-07-15T12:36:57.077Z,46.60
2017-07-15T12:39:25.903Z,45.80
2017-07-15T12:42:12.579Z,45.80
2017-07-15T12:47:43.596Z,48.00
2017-07-15T12:50:21.852Z,45.90
2017-07-15T12:52:53.295Z,45.30
2017-07-15T12:55:19.410Z,45.40
2017-07-15T12:58:03.866Z,46.40
2017-07-15T13:00:35.304Z,46.30
2017-07-15T13:03:14.717Z,45.80
2017-07-15T13:05:47.965Z,45.70
2017-07-15T13:08:24.456Z,45.70
2017-07-15T13:10:54.773Z,46.70
2017-07-15T13:13:24.163Z,46.70
2017-07-15T13:15:51.308Z,46.00
2017-07-15T13:18:30.419Z,46.00
2017-07-15T13:21:10.780Z,44.90
2017-07-15T13:23:38.635Z,44.70
2017-07-15T13:26:04.836Z,44.50
2017-07-15T13:28:31.090Z,43.90
2017-07-15T13:31:07.284Z,43.50
2017-07-15T13:33:34.048Z,44.20
2017-07-15T13:36:01.201Z,44.10
2017-07-15T13:38:29.281Z,45.00
2017-07-15T13:41:06.640Z,44.20
2017-07-15T13:43:40.034Z,43.50
2017-07-15T13:46:10.489Z,43.70
2017-07-15T13:48:36.596Z,43.70
2017-07-15T13:51:04.549Z,45.50
2017-07-15T13:53:38.285Z,45.50
2017-07-15T13:56:05.127Z,44.10
2017-07-15T13:58:37.942Z,43.30
2017-07-15T14:01:04.083Z,42.80
2017-07-15T14:03:30.139Z,43.50
2017-07-15T14:05:58.248Z,43.50
2017-07-15T14:08:28.295Z,43.00
2017-07-15T14:10:54.431Z,43.00
2017-07-15T14:13:20.503Z,42.20
2017-07-15T14:15:51.194Z,43.30
2017-07-15T14:18:23.544Z,42.60
2017-07-15T14:20:56.883Z,41.80
2017-07-15T14:23:22.981Z,41.80
2017-07-15T14:25:50.147Z,43.80
2017-07-15T14:28:19.681Z,42.30
2017-07-15T14:30:45.793Z,42.40
2017-07-15T14:33:13.988Z,42.70
2017-07-15T14:35:42.160Z,42.50
2017-07-15T14:38:08.258Z,42.20
2017-07-15T14:46:58.721Z,42.00
2017-07-15T14:49:35.327Z,42.90
2017-07-15T14:52:01.450Z,44.20
2017-07-15T14:54:28.266Z,44.20
2017-07-15T14:57:22.001Z,43.30
2017-07-15T14:59:48.033Z,42.60
2017-07-15T15:02:28.867Z,42.70
2017-07-15T15:05:00.369Z,43.30
2017-07-15T15:07:38.603Z,43.30
2017-07-15T15:10:04.757Z,42.30
2017-07-15T15:12:43.478Z,41.60
2017-07-15T15:15:22.927Z,40.30
2017-07-15T15:17:56.320Z,40.30
2017-07-15T15:20:29.734Z,40.80
2017-07-15T15:23:10.078Z,39.60
2017-07-15T15:25:39.710Z,39.10
2017-07-15T15:28:12.024Z,38.30
2017-07-15T15:30:48.448Z,36.80
2017-07-15T15:33:19.850Z,37.50
2017-07-15T15:35:57.272Z,36.80
2017-07-15T15:38:26.676Z,36.80
2017-07-15T15:40:58.833Z,37.60
2017-07-15T15:43:29.144Z,37.00
2017-07-15T15:45:56.061Z,37.30
2017-07-15T15:48:28.028Z,37.20
2017-07-15T15:50:54.089Z,38.10
2017-07-15T15:53:20.948Z,37.80
2017-07-15T15:56:03.666Z,38.00
2017-07-15T15:58:37.104Z,37.90
2017-07-15T16:01:07.507Z,38.10
2017-07-15T16:03:36.811Z,38.70
2017-07-15T16:06:05.683Z,38.10
2017-07-15T16:08:32.550Z,37.60
2017-07-15T16:10:58.664Z,37.50
2017-07-15T16:13:36.009Z,38.50
2017-07-15T16:16:14.348Z,38.90
2017-07-15T16:18:41.130Z,38.90
2017-07-15T16:21:07.244Z,39.30
2017-07-15T16:23:36.616Z,39.70
2017-07-15T16:26:06.730Z,37.70
2017-07-15T16:28:32.792Z,38.50
2017-07-15T16:30:58.923Z,37.80
2017-07-15T16:33:27.712Z,37.00
2017-07-15T16:35:54.562Z,37.80
2017-07-15T16:38:21.413Z,37.90
2017-07-15T16:40:51.532Z,37.50
2017-07-15T16:43:19.404Z,37.00
2017-07-15T16:45:50.166Z,37.50
2017-07-15T16:48:17.309Z,37.10
2017-07-15T16:50:50.726Z,35.00
2017-07-15T16:53:16.824Z,35.00
2017-07-15T16:55:52.192Z,36.00
2017-07-15T16:58:20.228Z,36.00
2017-07-15T17:00:46.329Z,36.40
2017-07-15T17:03:17.143Z,35.50
2017-07-15T17:05:46.444Z,35.40
2017-07-15T17:08:23.105Z,35.90
2017-07-15T17:10:49.195Z,36.30
2017-07-15T17:13:15.232Z,36.40
2017-07-15T17:15:44.704Z,35.50
2017-07-15T17:18:10.789Z,36.20
2017-07-15T17:20:37.603Z,36.10
2017-07-15T17:23:05.779Z,36.00
2017-07-15T17:25:31.808Z,36.90
2017-07-15T17:28:04.248Z,37.00
2017-07-15T17:30:30.361Z,37.60
2017-07-15T17:33:00.020Z,38.90
2017-07-15T17:35:26.061Z,38.80
2017-07-15T17:37:52.256Z,37.80
2017-07-15T17:40:18.385Z,38.60
2017-07-15T17:42:48.012Z,38.10
2017-07-15T17:45:19.238Z,37.10
2017-07-15T17:47:51.498Z,38.00
2017-07-15T17:50:23.822Z,38.70
2017-07-15T17:52:49.932Z,38.50
2017-07-15T17:55:16.006Z,38.60
2017-07-15T17:57:44.061Z,36.30
2017-07-15T18:00:10.162Z,35.80
2017-07-15T18:02:54.108Z,35.70
2017-07-15T18:05:26.726Z,34.80
2017-07-15T18:07:52.864Z,35.10
2017-07-15T18:10:19.753Z,34.50
2017-07-15T18:12:54.520Z,34.40
2017-07-15T18:15:20.644Z,34.50
2017-07-15T18:17:46.852Z,33.80
2017-07-15T18:20:20.536Z,35.10
2017-07-15T18:22:53.843Z,35.00
2017-07-15T18:25:22.128Z,34.70
2017-07-15T18:27:48.226Z,35.10
2017-07-15T18:30:15.064Z,33.30
2017-07-15T18:32:41.209Z,33.30
2017-07-15T18:35:13.522Z,33.80
2017-07-15T18:37:46.785Z,34.10
2017-07-15T18:40:17.335Z,34.20
2017-07-15T18:42:55.526Z,34.20
2017-07-15T18:45:27.821Z,35.30
2017-07-15T18:48:04.265Z,36.40
2017-07-15T18:50:40.649Z,35.60
2017-07-15T18:53:12.893Z,36.60
2017-07-15T18:55:49.500Z,37.90
2017-07-15T18:58:21.699Z,37.70
2017-07-15T19:01:08.132Z,38.40
2017-07-15T19:03:35.430Z,39.60
2017-07-15T19:06:05.030Z,39.60
2017-07-15T19:08:41.269Z,40.80
2017-07-15T19:11:13.660Z,41.30
2017-07-15T19:13:47.983Z,41.80
2017-07-15T19:16:24.426Z,41.90
2017-07-15T19:18:57.855Z,43.10
2017-07-15T19:21:27.247Z,43.10
2017-07-15T19:24:00.542Z,43.40
2017-07-15T19:26:37.982Z,44.30
2017-07-15T19:29:04.161Z,44.90
2017-07-15T19:31:33.683Z,44.50
2017-07-15T19:34:12.923Z,44.50
2017-07-15T19:36:39.121Z,45.90
2017-07-15T19:39:09.757Z,46.10
2017-07-15T19:41:56.079Z,47.20
2017-07-15T19:44:27.724Z,47.10
2017-07-15T19:47:04.178Z,47.50
2017-07-15T19:49:33.497Z,47.40
2017-07-15T19:52:09.642Z,47.50
2017-07-15T19:54:44.105Z,47.50
2017-07-15T19:57:28.849Z,47.50
2017-07-15T19:59:54.939Z,48.30
2017-07-15T20:02:29.593Z,49.70
2017-07-15T20:04:59.005Z,49.10
2017-07-15T20:07:30.184Z,49.30
2017-07-15T20:10:02.521Z,49.90
2017-07-15T20:12:47.801Z,49.60
2017-07-15T20:15:31.417Z,50.20
2017-07-15T20:18:03.855Z,51.80
2017-07-15T20:20:40.127Z,50.10
2017-07-15T20:23:18.559Z,50.20
2017-07-15T20:25:52.972Z,50.70
2017-07-15T20:28:27.325Z,50.20
2017-07-15T20:31:01.554Z,50.50
2017-07-15T20:33:30.924Z,50.50
2017-07-15T20:36:15.305Z,51.90
2017-07-15T20:38:44.803Z,52.30
2017-07-15T20:41:14.084Z,52.70
2017-07-15T20:43:51.404Z,52.90
2017-07-15T20:46:27.817Z,52.50
2017-07-15T20:49:02.048Z,53.00
2017-07-15T20:51:38.426Z,52.90
2017-07-15T20:54:09.441Z,53.30
2017-07-15T20:56:37.347Z,53.10
2017-07-15T20:59:04.517Z,53.10
2017-07-15T21:01:39.211Z,53.00
2017-07-15T21:04:25.503Z,52.80
2017-07-15T21:06:53.591Z,53.50
2017-07-15T21:09:33.008Z,53.60
2017-07-15T21:12:13.358Z,54.00
2017-07-15T21:14:46.061Z,54.40
2017-07-15T21:17:12.207Z,54.30
2017-07-15T21:19:38.326Z,54.00
2017-07-15T21:22:05.538Z,54.80
2017-07-15T21:24:31.696Z,54.50
2017-07-15T21:27:08.477Z,54.70
2017-07-15T21:29:35.734Z,54.20
2017-07-15T21:32:08.948Z,54.30
2017-07-15T21:34:36.979Z,54.50
2017-07-15T21:37:04.876Z,54.80
2017-07-15T21:39:33.032Z,54.50
2017-07-15T21:42:21.111Z,54.60
2017-07-15T21:45:05.949Z,54.60
2017-07-15T21:50:27.975Z,54.60
2017-07-15T21:53:14.210Z,55.00
2017-07-15T21:55:47.764Z,55.70
2017-07-15T21:58:13.903Z,55.70
2017-07-15T22:00:39.962Z,56.00
2017-07-15T22:03:06.066Z,56.30
2017-07-15T22:05:32.217Z,56.10
2017-07-15T22:07:58.309Z,56.30
2017-07-15T22:10:25.116Z,57.40
2017-07-15T22:12:51.172Z,57.30
2017-07-15T22:15:17.256Z,57.70
2017-07-15T22:17:43.329Z,57.40
2017-07-15T22:20:09.421Z,57.30
2017-07-15T22:22:35.592Z,57.10
2017-07-15T22:25:01.643Z,57.40
2017-07-15T22:27:28.413Z,57.90
2017-07-15T22:29:54.463Z,57.90
2017-07-15T22:32:22.626Z,57.60
2017-07-15T22:34:48.728Z,57.70
2017-07-15T22:37:14.781Z,57.20
2017-07-15T22:39:40.821Z,57.70
2017-07-15T22:42:06.864Z,58.00
2017-07-15T22:44:32.913Z,57.70
2017-07-15T22:46:58.988Z,58.20
2017-07-15T22:49:25.038Z,58.00
2017-07-15T22:51:51.117Z,57.50
2017-07-15T22:54:17.188Z,57.10
2017-07-15T22:56:43.212Z,58.30
2017-07-15T22:59:10.005Z,59.00
2017-07-15T23:01:36.061Z,58.40
2017-07-15T23:04:02.133Z,59.20
2017-07-15T23:06:28.213Z,58.50
2017-07-15T23:08:54.261Z,58.50
2017-07-15T23:11:21.086Z,57.80
2017-07-15T23:13:47.150Z,57.20
2017-07-15T23:16:13.945Z,57.90
2017-07-15T23:18:40.007Z,57.80
2017-07-15T23:21:06.122Z,57.70
2017-07-15T23:23:32.192Z,56.70
2017-07-15T23:25:58.983Z,58.00
2017-07-15T23:28:25.008Z,57.90
2017-07-15T23:30:51.081Z,59.30
2017-07-15T23:33:17.120Z,59.60
2017-07-15T23:35:43.945Z,62.40
2017-07-15T23:38:09.994Z,62.40
2017-07-15T23:40:36.769Z,63.20
2017-07-15T23:43:02.843Z,62.10
2017-07-15T23:45:28.897Z,61.20
2017-07-15T23:47:54.995Z,61.20
2017-07-15T23:50:21.073Z,61.40
2017-07-15T23:52:47.198Z,62.60
2017-07-15T23:55:13.241Z,61.90
2017-07-15T23:57:39.355Z,63.00
